Cabano, Canada
Current Conditions -  °F | °C
As of 1:07 PM on Thursday 18 Dec 2014 (Local Time) from KFVE Reporting Station
Light Snow Light Snow  
Wind Chill: 11°   Ceiling: 3000
Heat Index: 25°   Visibility: 2mi
Dew Point: 22°   Wind: 20mph
Humidity: 88%   Direction: 340°NNW
Pressure: 29.54"   Gusts: 36mph
Location:  47.68°N, 68.88°W
Report Text: KFVE 181807Z AUTO 34017G31KT 2SM -SN BR BKN030 OVC040 M04/M06 A2954 RMK AO2 PK WND 34031/1759 P0000 T10391056
Loading
Personal Weather Stations






























Interactive Weather Map New forecast layout! Learn more

10-Day Weather Forecast

Advertisements
Track Severe Weather on mobile